createdAt,value
2018-12-04T00:00:36.190Z,80.16
2018-12-04T00:03:06.988Z,80.37
2018-12-04T00:05:36.420Z,80.37
2018-12-04T00:08:05.797Z,80.69
2018-12-04T00:10:35.327Z,80.66
2018-12-04T00:13:04.733Z,80.80
2018-12-04T00:15:33.992Z,81.06
2018-12-04T00:18:03.598Z,81.10
2018-12-04T00:20:33.006Z,81.31
2018-12-04T00:23:02.704Z,81.43
2018-12-04T00:25:31.982Z,81.40
2018-12-04T00:28:01.237Z,81.29
2018-12-04T00:30:30.724Z,81.61
2018-12-04T00:32:59.995Z,81.50
2018-12-04T00:35:29.179Z,81.81
2018-12-04T00:37:58.665Z,81.46
2018-12-04T00:40:27.988Z,81.76
2018-12-04T00:42:57.481Z,82.18
2018-12-04T00:45:26.818Z,82.57
2018-12-04T00:47:56.439Z,82.56
2018-12-04T00:50:25.682Z,82.65
2018-12-04T00:52:55.235Z,82.69
2018-12-04T00:55:24.623Z,82.57
2018-12-04T00:57:53.939Z,82.62
2018-12-04T01:00:23.349Z,82.84
2018-12-04T01:02:52.727Z,82.76
2018-12-04T01:05:21.987Z,82.80
2018-12-04T01:07:51.108Z,82.76
2018-12-04T01:10:20.420Z,83.12
2018-12-04T01:12:49.588Z,83.13
2018-12-04T01:15:18.785Z,83.06
2018-12-04T01:17:48.218Z,82.71
2018-12-04T01:20:17.636Z,82.69
2018-12-04T01:22:46.911Z,82.82
2018-12-04T01:25:16.169Z,82.77
2018-12-04T01:27:45.517Z,82.77
2018-12-04T01:30:14.722Z,82.67
2018-12-04T01:32:44.158Z,82.63
2018-12-04T01:35:13.655Z,82.49
2018-12-04T01:37:42.774Z,82.48
2018-12-04T01:40:12.452Z,82.12
2018-12-04T01:42:42.219Z,82.50
2018-12-04T01:45:11.928Z,82.45
2018-12-04T01:47:41.500Z,82.36
2018-12-04T01:50:11.282Z,82.48
2018-12-04T01:52:40.836Z,82.20
2018-12-04T01:55:10.299Z,81.27
2018-12-04T01:57:39.867Z,81.27
2018-12-04T02:00:09.555Z,80.85
2018-12-04T02:02:39.185Z,80.24
2018-12-04T02:05:08.466Z,79.76
2018-12-04T02:07:37.688Z,80.03
2018-12-04T02:10:07.401Z,79.99
2018-12-04T02:12:36.550Z,79.61
2018-12-04T02:15:07.439Z,79.41
2018-12-04T02:17:36.802Z,79.33
2018-12-04T02:20:06.402Z,79.45
2018-12-04T02:22:35.926Z,79.23
2018-12-04T02:25:05.203Z,79.04
2018-12-04T02:27:34.457Z,78.59
2018-12-04T02:30:03.853Z,78.71
2018-12-04T02:32:33.071Z,78.35
2018-12-04T02:35:02.313Z,78.25
2018-12-04T02:37:31.595Z,77.95
2018-12-04T02:40:00.980Z,77.52
2018-12-04T02:42:30.211Z,75.96
2018-12-04T02:44:59.402Z,76.50
2018-12-04T02:47:28.758Z,76.58
2018-12-04T02:49:57.967Z,76.37
2018-12-04T02:52:27.461Z,76.48
2018-12-04T02:54:56.589Z,74.60
2018-12-04T02:57:25.738Z,75.79
2018-12-04T02:59:55.012Z,75.95
2018-12-04T03:02:24.300Z,76.07
2018-12-04T03:04:53.520Z,75.59
2018-12-04T03:07:23.724Z,74.40
2018-12-04T03:09:52.841Z,74.39
2018-12-04T03:12:22.023Z,74.96
2018-12-04T03:14:51.035Z,74.42
2018-12-04T03:17:20.159Z,74.41
2018-12-04T03:19:49.547Z,74.44
2018-12-04T03:22:18.776Z,74.27
2018-12-04T03:24:48.354Z,73.96
2018-12-04T03:27:17.622Z,73.93
2018-12-04T03:29:46.683Z,73.68
2018-12-04T03:32:15.943Z,74.21
2018-12-04T03:34:45.208Z,73.15
2018-12-04T03:37:14.441Z,73.32
2018-12-04T03:39:43.620Z,73.29
2018-12-04T03:42:12.870Z,73.56
2018-12-04T03:44:42.459Z,73.01
2018-12-04T03:47:11.980Z,73.49
2018-12-04T03:49:41.549Z,73.41
2018-12-04T03:52:10.954Z,72.74
2018-12-04T03:54:40.534Z,72.79
2018-12-04T03:57:10.143Z,73.20
2018-12-04T03:59:39.579Z,73.27
2018-12-04T04:02:09.029Z,73.14
2018-12-04T04:04:38.379Z,73.12
2018-12-04T04:07:07.715Z,73.23
2018-12-04T04:09:37.142Z,73.38
2018-12-04T04:12:06.642Z,72.84
2018-12-04T04:14:36.048Z,72.39
2018-12-04T04:17:05.399Z,72.63
2018-12-04T04:19:34.732Z,72.90
2018-12-04T04:22:04.012Z,72.78
2018-12-04T04:24:33.115Z,72.26
2018-12-04T04:27:02.296Z,72.57
2018-12-04T04:29:31.651Z,71.97
2018-12-04T04:32:00.984Z,72.33
2018-12-04T04:34:30.258Z,71.12
2018-12-04T04:36:59.454Z,71.63
2018-12-04T04:39:28.821Z,71.82
2018-12-04T04:41:58.185Z,71.21
2018-12-04T04:44:27.461Z,71.09
2018-12-04T04:46:56.802Z,71.40
2018-12-04T04:49:26.158Z,71.13
2018-12-04T04:51:55.388Z,71.39
2018-12-04T04:54:24.855Z,71.50
2018-12-04T04:56:54.761Z,71.06
2018-12-04T04:59:24.320Z,71.17
2018-12-04T05:01:53.627Z,71.56
2018-12-04T05:04:22.975Z,69.91
2018-12-04T05:06:52.198Z,70.94
2018-12-04T05:09:21.573Z,70.29
2018-12-04T05:11:50.824Z,69.96
2018-12-04T05:14:20.053Z,70.17
2018-12-04T05:16:49.298Z,70.42
2018-12-04T05:19:18.581Z,70.19
2018-12-04T05:21:47.864Z,69.57
2018-12-04T05:24:17.153Z,69.78
2018-12-04T05:26:46.523Z,69.00
2018-12-04T05:29:15.803Z,69.36
2018-12-04T05:31:44.956Z,69.76
2018-12-04T05:34:14.358Z,68.55
2018-12-04T05:36:43.641Z,69.07
2018-12-04T05:39:12.857Z,68.97
2018-12-04T05:41:42.367Z,69.02
2018-12-04T05:44:11.984Z,68.73
2018-12-04T05:46:41.334Z,69.50
2018-12-04T05:49:10.587Z,68.65
2018-12-04T05:51:40.113Z,68.89
2018-12-04T05:54:14.173Z,68.84
2018-12-04T05:56:43.880Z,68.51
2018-12-04T05:59:13.334Z,69.07
2018-12-04T06:01:42.533Z,69.11
2018-12-04T06:04:12.071Z,69.04
2018-12-04T06:06:41.418Z,68.67
2018-12-04T06:09:11.557Z,68.35
2018-12-04T06:11:41.342Z,68.71
2018-12-04T06:14:10.657Z,68.40
2018-12-04T06:16:40.114Z,68.39
2018-12-04T06:19:09.531Z,68.02
2018-12-04T06:21:39.224Z,68.80
2018-12-04T06:24:09.051Z,68.56
2018-12-04T06:26:38.546Z,69.07
2018-12-04T06:29:07.729Z,68.19
2018-12-04T06:31:37.159Z,68.48
2018-12-04T06:34:06.718Z,68.10
2018-12-04T06:36:36.454Z,67.58
2018-12-04T06:39:08.031Z,67.69
2018-12-04T06:41:37.576Z,67.47
2018-12-04T06:44:06.932Z,67.72
2018-12-04T06:46:36.230Z,67.20
2018-12-04T06:49:06.087Z,67.53
2018-12-04T06:51:35.406Z,66.76
2018-12-04T06:54:04.723Z,66.67
2018-12-04T06:56:33.974Z,65.27
2018-12-04T06:59:02.954Z,64.72
2018-12-04T07:01:32.727Z,64.54
2018-12-04T07:04:01.997Z,63.60
2018-12-04T07:06:31.225Z,63.05
2018-12-04T07:09:00.212Z,64.10
2018-12-04T07:11:29.511Z,63.93
2018-12-04T07:13:58.814Z,64.22
2018-12-04T07:16:27.744Z,64.43
2018-12-04T07:18:57.157Z,63.85
2018-12-04T07:21:26.485Z,62.84
2018-12-04T07:23:55.726Z,63.49
2018-12-04T07:26:24.980Z,63.67
2018-12-04T07:28:54.444Z,63.68
2018-12-04T07:31:23.857Z,63.99
2018-12-04T07:33:53.191Z,64.33
2018-12-04T07:36:28.688Z,64.63
2018-12-04T07:38:58.028Z,65.27
2018-12-04T07:41:27.271Z,65.19
2018-12-04T07:43:56.727Z,64.63
2018-12-04T07:46:26.038Z,64.68
2018-12-04T07:48:55.289Z,64.57
2018-12-04T07:51:24.679Z,63.95
2018-12-04T07:53:53.948Z,64.51
2018-12-04T07:56:23.254Z,62.94
2018-12-04T07:58:52.932Z,63.08
2018-12-04T08:01:22.338Z,61.92
2018-12-04T08:03:51.631Z,61.71
2018-12-04T08:06:20.901Z,62.24
2018-12-04T08:08:50.120Z,61.55
2018-12-04T08:11:19.468Z,61.51
2018-12-04T08:13:48.773Z,61.09
2018-12-04T08:16:18.125Z,62.28
2018-12-04T08:18:47.680Z,62.90
2018-12-04T08:21:30.583Z,63.65
2018-12-04T08:23:59.743Z,64.33
2018-12-04T08:26:29.065Z,65.04
2018-12-04T08:28:58.247Z,65.59
2018-12-04T08:31:27.264Z,65.72
2018-12-04T08:33:56.749Z,65.83
2018-12-04T08:36:26.008Z,66.17
2018-12-04T08:38:55.168Z,65.92
2018-12-04T08:41:24.336Z,66.11
2018-12-04T08:43:53.647Z,65.95
2018-12-04T08:46:23.404Z,66.03
2018-12-04T08:48:52.775Z,66.25
2018-12-04T08:51:22.181Z,66.17
2018-12-04T08:53:51.591Z,66.47
2018-12-04T08:56:20.951Z,66.62
2018-12-04T08:58:50.133Z,66.55
2018-12-04T09:01:19.393Z,66.18
2018-12-04T09:03:48.581Z,65.58
2018-12-04T09:06:18.148Z,66.26
2018-12-04T09:08:47.600Z,66.27
2018-12-04T09:11:17.043Z,66.60
2018-12-04T09:13:46.409Z,66.61
2018-12-04T09:16:15.805Z,66.14
2018-12-04T09:18:45.198Z,66.27
2018-12-04T09:21:14.720Z,65.68
2018-12-04T09:23:44.261Z,65.26
2018-12-04T09:26:13.627Z,65.72
2018-12-04T09:28:43.236Z,65.07
2018-12-04T09:31:12.537Z,65.04
2018-12-04T09:33:42.001Z,65.48
2018-12-04T09:36:11.542Z,65.22
2018-12-04T09:38:41.048Z,65.55
2018-12-04T09:41:10.511Z,65.88
2018-12-04T09:43:39.939Z,64.07
2018-12-04T09:46:09.436Z,64.93
2018-12-04T09:48:38.925Z,65.41
2018-12-04T09:51:24.467Z,64.86
2018-12-04T09:53:54.733Z,65.94
2018-12-04T09:56:24.033Z,65.97
2018-12-04T09:58:53.361Z,65.79
2018-12-04T10:01:22.622Z,65.18
2018-12-04T10:03:51.975Z,65.30
2018-12-04T10:06:21.368Z,65.19
2018-12-04T10:08:50.796Z,65.54
2018-12-04T10:11:20.114Z,65.53
2018-12-04T10:13:49.407Z,65.29
2018-12-04T10:16:18.751Z,65.88
2018-12-04T10:18:48.159Z,65.43
2018-12-04T10:21:17.359Z,66.04
2018-12-04T10:23:46.974Z,65.67
2018-12-04T10:26:16.252Z,66.29
2018-12-04T10:28:45.601Z,65.81
2018-12-04T10:31:14.891Z,66.15
2018-12-04T10:33:44.063Z,65.78
2018-12-04T10:36:13.431Z,65.99
2018-12-04T10:38:42.744Z,66.06
2018-12-04T10:41:12.460Z,66.32
2018-12-04T10:43:41.923Z,65.93
2018-12-04T10:46:11.469Z,65.61
2018-12-04T10:48:40.965Z,66.39
2018-12-04T10:51:10.522Z,65.88
2018-12-04T10:53:40.219Z,66.47
2018-12-04T10:56:09.572Z,66.06
2018-12-04T10:58:39.016Z,66.14
2018-12-04T11:01:13.283Z,66.27
2018-12-04T11:03:42.565Z,65.99
2018-12-04T11:06:12.013Z,66.63
2018-12-04T11:08:41.588Z,67.05
2018-12-04T11:11:10.938Z,66.89
2018-12-04T11:13:40.457Z,66.54
2018-12-04T11:16:09.970Z,67.37
2018-12-04T11:18:40.043Z,67.17
2018-12-04T11:21:09.399Z,67.03
2018-12-04T11:23:38.948Z,66.66
2018-12-04T11:26:09.523Z,66.38
2018-12-04T11:28:39.434Z,65.89
2018-12-04T11:31:08.512Z,65.90
2018-12-04T11:33:37.722Z,64.99
2018-12-04T11:36:06.947Z,65.15
2018-12-04T11:38:36.266Z,65.15
2018-12-04T11:41:05.507Z,64.81
2018-12-04T11:43:34.823Z,64.58
2018-12-04T11:46:04.235Z,64.64
2018-12-04T11:48:33.560Z,64.27
2018-12-04T11:51:02.799Z,63.79
2018-12-04T11:53:32.103Z,64.28
2018-12-04T11:56:02.974Z,63.09
2018-12-04T11:58:32.408Z,61.89
2018-12-04T12:01:01.917Z,61.11
2018-12-04T12:03:31.252Z,60.17
2018-12-04T12:06:00.599Z,57.93
2018-12-04T12:08:29.841Z,57.91
2018-12-04T12:10:59.135Z,58.06
2018-12-04T12:13:28.503Z,58.00
2018-12-04T12:15:57.875Z,58.45
2018-12-04T12:18:27.183Z,58.16
2018-12-04T12:20:56.443Z,57.17
2018-12-04T12:23:25.877Z,58.39
2018-12-04T12:25:55.201Z,58.48
2018-12-04T12:28:24.530Z,57.91
2018-12-04T12:30:54.186Z,57.99
2018-12-04T12:33:23.454Z,56.85
2018-12-04T12:35:52.954Z,57.19
2018-12-04T12:38:22.144Z,57.01
2018-12-04T12:40:51.364Z,57.06
2018-12-04T12:43:21.517Z,57.61
2018-12-04T12:45:50.969Z,57.33
2018-12-04T12:48:20.287Z,57.34
2018-12-04T12:50:49.518Z,56.94
2018-12-04T12:53:18.806Z,57.64
2018-12-04T12:55:48.270Z,56.98
2018-12-04T12:58:17.795Z,56.24
2018-12-04T13:00:47.117Z,56.62
2018-12-04T13:03:16.357Z,56.55
2018-12-04T13:05:45.688Z,55.98
2018-12-04T13:08:15.041Z,55.05
2018-12-04T13:10:44.297Z,54.96
2018-12-04T13:13:13.463Z,55.48
2018-12-04T13:15:42.767Z,56.32
2018-12-04T13:18:12.112Z,55.48
2018-12-04T13:20:41.620Z,56.42
2018-12-04T13:23:10.983Z,55.72
2018-12-04T13:25:40.904Z,55.17
2018-12-04T13:28:10.364Z,55.33
2018-12-04T13:30:39.607Z,55.75
2018-12-04T13:33:09.440Z,55.29
2018-12-04T13:35:38.955Z,55.04
2018-12-04T13:38:08.431Z,53.63
2018-12-04T13:40:37.812Z,53.31
2018-12-04T13:43:07.212Z,52.99
2018-12-04T13:45:36.614Z,53.69
2018-12-04T13:48:06.114Z,53.66
2018-12-04T13:50:35.462Z,53.63
2018-12-04T13:53:04.726Z,53.57
2018-12-04T13:55:34.289Z,53.67
2018-12-04T13:58:03.630Z,53.03
2018-12-04T14:00:33.000Z,52.78
2018-12-04T14:03:02.218Z,52.05
2018-12-04T14:05:31.584Z,51.84
2018-12-04T14:08:00.909Z,52.15
2018-12-04T14:10:30.211Z,52.34
2018-12-04T14:12:59.619Z,53.32
2018-12-04T14:15:29.092Z,52.92
2018-12-04T14:17:58.637Z,51.17
2018-12-04T14:20:27.810Z,50.38
2018-12-04T14:22:56.941Z,49.89
2018-12-04T14:25:26.267Z,49.43
2018-12-04T14:27:55.717Z,49.97
2018-12-04T14:30:24.871Z,49.39
2018-12-04T14:32:54.582Z,48.36
2018-12-04T14:35:24.880Z,47.55
2018-12-04T14:37:54.285Z,46.80
2018-12-04T14:40:23.793Z,46.72
2018-12-04T14:42:55.210Z,46.93
2018-12-04T14:45:25.197Z,47.34
2018-12-04T14:47:54.549Z,48.45
2018-12-04T14:50:24.456Z,49.07
2018-12-04T14:52:55.239Z,50.36
2018-12-04T14:55:24.987Z,49.16
2018-12-04T14:57:56.341Z,49.99
2018-12-04T15:00:39.976Z,49.83
2018-12-04T15:03:09.195Z,50.36
2018-12-04T15:05:40.897Z,50.54
2018-12-04T15:08:15.899Z,50.57
2018-12-04T15:10:45.387Z,49.25
2018-12-04T15:13:14.857Z,49.53
2018-12-04T15:15:44.315Z,49.96
2018-12-04T15:18:14.662Z,49.37
2018-12-04T15:20:43.958Z,50.13
2018-12-04T15:23:17.861Z,49.66
2018-12-04T15:25:50.277Z,50.14
2018-12-04T15:28:19.466Z,49.93
2018-12-04T15:30:48.853Z,49.22
2018-12-04T15:33:18.236Z,48.55
2018-12-04T15:35:47.906Z,48.34
2018-12-04T15:38:28.149Z,47.87
2018-12-04T15:41:09.152Z,48.57
2018-12-04T15:43:45.967Z,48.37
2018-12-04T15:46:20.556Z,47.55
2018-12-04T15:48:51.269Z,48.41
2018-12-04T15:51:20.469Z,48.08
2018-12-04T15:53:49.815Z,48.07
2018-12-04T15:56:19.212Z,47.55
2018-12-04T15:58:50.656Z,46.77
2018-12-04T16:01:22.175Z,47.75
2018-12-04T16:03:51.684Z,48.25
2018-12-04T16:06:22.523Z,48.36
2018-12-04T16:08:51.939Z,48.60
2018-12-04T16:11:21.787Z,48.80
2018-12-04T16:13:51.280Z,49.09
2018-12-04T16:16:21.243Z,48.60
2018-12-04T16:18:50.220Z,48.80
2018-12-04T16:21:19.497Z,48.74
2018-12-04T16:23:50.055Z,48.45
2018-12-04T16:26:19.486Z,49.04
2018-12-04T16:28:49.366Z,48.44
2018-12-04T16:31:18.634Z,48.55
2018-12-04T16:33:48.511Z,47.37
2018-12-04T16:36:19.035Z,47.84
2018-12-04T16:38:54.918Z,47.96
2018-12-04T16:41:24.276Z,48.17
2018-12-04T16:43:53.514Z,47.68
2018-12-04T16:46:23.269Z,47.80
2018-12-04T16:48:52.472Z,47.63
2018-12-04T16:51:23.041Z,47.65
2018-12-04T16:53:54.222Z,48.55
2018-12-04T16:56:23.598Z,48.61
2018-12-04T16:58:52.979Z,48.73
2018-12-04T17:01:22.379Z,48.80
2018-12-04T17:03:53.394Z,48.47
2018-12-04T17:06:23.566Z,47.90
2018-12-04T17:08:54.092Z,48.69
2018-12-04T17:11:23.524Z,47.96
2018-12-04T17:13:53.715Z,48.53
2018-12-04T17:16:30.038Z,48.22
2018-12-04T17:18:59.433Z,47.98
2018-12-04T17:21:29.101Z,48.01
2018-12-04T17:23:58.409Z,48.17
2018-12-04T17:26:27.790Z,47.68
2018-12-04T17:28:57.340Z,48.07
2018-12-04T17:31:26.997Z,47.46
2018-12-04T17:33:56.442Z,47.72
2018-12-04T17:36:25.942Z,47.71
2018-12-04T17:38:55.568Z,47.07
2018-12-04T17:41:24.942Z,47.03
2018-12-04T17:43:55.011Z,47.52
2018-12-04T17:46:24.735Z,48.41
2018-12-04T17:48:54.416Z,48.28
2018-12-04T17:51:24.360Z,47.94
2018-12-04T17:53:53.753Z,47.92
2018-12-04T17:56:23.266Z,47.34
2018-12-04T17:58:52.835Z,48.10
2018-12-04T18:01:22.032Z,48.23
2018-12-04T18:03:51.602Z,48.76
2018-12-04T18:06:21.334Z,48.51
2018-12-04T18:08:51.808Z,48.98
2018-12-04T18:11:21.006Z,48.93
2018-12-04T18:13:51.173Z,48.81
2018-12-04T18:16:20.251Z,48.57
2018-12-04T18:18:49.291Z,48.27
2018-12-04T18:21:18.875Z,47.14
2018-12-04T18:23:48.384Z,47.79
2018-12-04T18:26:18.242Z,48.13
2018-12-04T18:28:47.805Z,48.71
2018-12-04T18:31:17.707Z,49.29
2018-12-04T18:33:47.462Z,49.87
2018-12-04T18:36:17.095Z,50.30
2018-12-04T18:38:46.569Z,50.60
2018-12-04T18:41:16.088Z,51.15
2018-12-04T18:43:45.618Z,51.34
2018-12-04T18:46:16.457Z,51.18
2018-12-04T18:48:46.030Z,51.36
2018-12-04T18:51:15.099Z,51.50
2018-12-04T18:53:44.923Z,51.66
2018-12-04T18:56:14.332Z,52.13
2018-12-04T18:58:43.453Z,51.99
2018-12-04T19:01:13.682Z,51.91
2018-12-04T19:03:43.114Z,51.15
2018-12-04T19:06:12.904Z,50.60
2018-12-04T19:08:49.552Z,50.30
2018-12-04T19:11:19.185Z,50.34
2018-12-04T19:13:48.090Z,50.24
2018-12-04T19:16:17.904Z,50.67
2018-12-04T19:18:47.304Z,51.28
2018-12-04T19:21:16.486Z,51.46
2018-12-04T19:23:46.158Z,50.80
2018-12-04T19:26:15.563Z,50.59
2018-12-04T19:28:44.995Z,50.59
2018-12-04T19:31:14.808Z,49.64
2018-12-04T19:33:44.396Z,49.38
2018-12-04T19:36:13.954Z,49.81
2018-12-04T19:38:43.185Z,49.92
2018-12-04T19:41:12.238Z,50.54
2018-12-04T19:43:42.091Z,50.39
2018-12-04T19:46:11.906Z,50.87
2018-12-04T19:48:41.426Z,50.60
2018-12-04T19:51:11.126Z,49.31
2018-12-04T19:53:40.924Z,49.78
2018-12-04T19:56:10.861Z,50.12
2018-12-04T19:58:40.287Z,50.74
2018-12-04T20:01:10.162Z,50.83
2018-12-04T20:03:41.409Z,51.03
2018-12-04T20:06:11.033Z,51.30
2018-12-04T20:08:45.158Z,51.55
2018-12-04T20:11:14.998Z,51.42
2018-12-04T20:13:44.390Z,51.80
2018-12-04T20:16:13.842Z,51.30
2018-12-04T20:18:43.194Z,51.31
2018-12-04T20:21:12.608Z,50.20
2018-12-04T20:23:42.029Z,50.79
2018-12-04T20:26:11.541Z,51.12
2018-12-04T20:28:40.915Z,50.94
2018-12-04T20:31:41.397Z,51.05
2018-12-04T20:34:11.081Z,50.65
2018-12-04T20:36:40.729Z,51.07
2018-12-04T20:39:10.992Z,50.43
2018-12-04T20:41:40.547Z,50.41
2018-12-04T20:44:10.102Z,50.38
2018-12-04T20:46:39.722Z,50.29
2018-12-04T20:49:09.642Z,49.94
2018-12-04T20:51:39.445Z,49.83
2018-12-04T20:54:09.574Z,49.89
2018-12-04T20:56:40.265Z,49.70
2018-12-04T20:59:09.602Z,49.66
2018-12-04T21:01:40.607Z,50.06
2018-12-04T21:04:10.087Z,50.00
2018-12-04T21:06:39.671Z,49.78
2018-12-04T21:09:09.903Z,49.75
2018-12-04T21:11:39.868Z,49.95
2018-12-04T21:14:09.686Z,50.48
2018-12-04T21:16:39.459Z,50.46
2018-12-04T21:19:09.524Z,50.16
2018-12-04T21:21:39.352Z,50.31
2018-12-04T21:24:09.229Z,50.09
2018-12-04T21:26:39.200Z,50.63
2018-12-04T21:29:13.626Z,50.81
2018-12-04T21:31:48.118Z,50.81
2018-12-04T21:34:22.251Z,50.86
2018-12-04T21:36:56.376Z,51.12
2018-12-04T21:39:30.788Z,51.02
2018-12-04T21:42:04.032Z,51.33
2018-12-04T21:44:38.309Z,51.22
2018-12-04T21:47:12.701Z,51.68
2018-12-04T21:49:42.133Z,51.77
2018-12-04T21:52:11.582Z,52.09
2018-12-04T21:54:41.005Z,51.64
2018-12-04T21:57:10.581Z,52.03
2018-12-04T21:59:39.937Z,52.29
2018-12-04T22:02:09.467Z,52.31
2018-12-04T22:04:38.980Z,51.86
2018-12-04T22:07:09.369Z,51.48
2018-12-04T22:09:38.632Z,51.90
2018-12-04T22:12:09.705Z,51.44
2018-12-04T22:14:39.421Z,51.48
2018-12-04T22:17:08.907Z,50.79
2018-12-04T22:19:38.454Z,50.72
2018-12-04T22:22:07.825Z,50.99
2018-12-04T22:24:37.424Z,51.02
2018-12-04T22:27:07.068Z,51.17
2018-12-04T22:29:36.469Z,50.99
2018-12-04T22:32:06.619Z,51.14
2018-12-04T22:34:36.113Z,51.68
2018-12-04T22:37:05.569Z,51.37
2018-12-04T22:39:35.045Z,51.50
2018-12-04T22:42:04.420Z,51.52
2018-12-04T22:44:33.931Z,51.66
2018-12-04T22:47:03.090Z,51.38
2018-12-04T22:49:32.415Z,51.09
2018-12-04T22:52:01.643Z,51.42
2018-12-04T22:54:30.984Z,51.30
2018-12-04T22:57:00.082Z,50.71
2018-12-04T22:59:29.390Z,50.72
2018-12-04T23:01:58.719Z,50.25
2018-12-04T23:04:28.144Z,51.22
2018-12-04T23:06:57.625Z,51.04
2018-12-04T23:09:27.220Z,50.73
2018-12-04T23:11:56.523Z,50.65
2018-12-04T23:14:25.863Z,50.86
2018-12-04T23:16:55.310Z,51.01
2018-12-04T23:19:24.923Z,50.84
2018-12-04T23:21:54.222Z,50.97
2018-12-04T23:24:23.458Z,50.71
2018-12-04T23:26:53.062Z,51.39
2018-12-04T23:29:22.327Z,51.49
2018-12-04T23:31:51.854Z,51.36
2018-12-04T23:34:21.191Z,51.16
2018-12-04T23:36:50.335Z,51.42
2018-12-04T23:39:19.665Z,51.31
2018-12-04T23:41:49.110Z,51.54
2018-12-04T23:44:20.579Z,51.29
2018-12-04T23:46:49.789Z,51.50
2018-12-04T23:49:19.048Z,51.81
2018-12-04T23:51:48.295Z,51.93
2018-12-04T23:54:17.615Z,52.38
2018-12-04T23:56:46.888Z,52.23
2018-12-04T23:59:16.249Z,52.62
